createdAt,value
2023-10-14T00:00:30.137Z,106.00
2023-10-14T00:01:15.754Z,105.33
2023-10-14T00:02:26.207Z,102.33
2023-10-14T00:03:20.019Z,101.33
2023-10-14T00:03:57.783Z,101.00
2023-10-14T00:04:33.824Z,101.00
2023-10-14T00:05:09.515Z,101.00
2023-10-14T00:05:45.336Z,101.00
2023-10-14T00:06:21.425Z,101.33
2023-10-14T00:06:59.712Z,103.67
2023-10-14T00:07:35.366Z,109.00
2023-10-14T00:08:14.824Z,114.00
2023-10-14T00:08:59.925Z,116.00
2023-10-14T00:09:37.056Z,115.00
2023-10-14T00:10:45.601Z,113.33
2023-10-14T00:11:20.169Z,112.67
2023-10-14T00:11:57.332Z,112.00
2023-10-14T00:12:32.524Z,111.00
2023-10-14T00:13:12.385Z,110.67
2023-10-14T00:14:00.106Z,110.00
2023-10-14T00:14:38.543Z,109.33
2023-10-14T00:15:14.707Z,108.67
2023-10-14T00:15:50.261Z,108.00
2023-10-14T00:16:32.212Z,107.00
2023-10-14T00:17:13.173Z,105.67
2023-10-14T00:17:50.772Z,105.00
2023-10-14T00:18:27.544Z,105.00
2023-10-14T00:19:05.380Z,104.67
2023-10-14T00:19:40.168Z,104.00
2023-10-14T00:20:16.189Z,104.00
2023-10-14T00:20:54.330Z,103.33
2023-10-14T00:21:29.857Z,102.00
2023-10-14T00:22:07.132Z,102.00
2023-10-14T00:22:45.895Z,100.33
2023-10-14T00:23:25.257Z,98.67
2023-10-14T00:24:02.906Z,96.67
2023-10-14T00:24:41.254Z,93.33
2023-10-14T00:26:18.262Z,92.33
2023-10-14T00:27:27.892Z,92.00
2023-10-14T00:28:08.412Z,91.67
2023-10-14T00:28:48.104Z,91.00
2023-10-14T00:29:23.783Z,90.67
2023-10-14T00:30:13.825Z,89.67
2023-10-14T00:30:49.490Z,76.67
2023-10-14T00:32:16.460Z,75.33
2023-10-14T00:32:51.955Z,72.00
2023-10-14T00:33:29.988Z,63.00
2023-10-14T00:34:05.876Z,58.33
2023-10-14T00:34:41.301Z,57.33
2023-10-14T00:35:21.003Z,57.00
2023-10-14T00:35:57.638Z,57.00
2023-10-14T00:36:33.857Z,59.67
2023-10-14T00:37:10.106Z,61.00
2023-10-14T00:37:52.935Z,62.67
2023-10-14T00:38:32.096Z,61.67
2023-10-14T00:39:28.048Z,60.00
2023-10-14T00:40:26.475Z,55.00
2023-10-14T00:41:12.792Z,44.67
2023-10-14T00:41:54.074Z,40.33
2023-10-14T00:42:35.971Z,43.00
2023-10-14T00:43:11.877Z,46.33
2023-10-14T00:43:47.629Z,47.33
2023-10-14T00:44:28.116Z,40.33
2023-10-14T00:45:20.327Z,39.33
2023-10-14T00:46:33.918Z,39.33
2023-10-14T00:47:20.357Z,37.00
2023-10-14T00:48:29.644Z,39.33
2023-10-14T00:49:06.165Z,36.33
2023-10-14T00:49:44.199Z,29.33
2023-10-14T00:50:35.644Z,29.67
2023-10-14T00:51:21.720Z,31.67
2023-10-14T00:52:35.924Z,33.00
2023-10-14T00:53:12.708Z,35.33
2023-10-14T00:53:55.112Z,39.00
2023-10-14T00:54:36.696Z,47.00
2023-10-14T00:55:15.579Z,54.00
2023-10-14T00:55:51.932Z,68.33
2023-10-14T00:56:30.401Z,76.00
2023-10-14T00:57:18.969Z,79.00
2023-10-14T00:57:59.405Z,77.33
2023-10-14T00:58:46.738Z,77.33
2023-10-14T00:59:27.349Z,77.67
2023-10-14T01:00:02.913Z,79.67
2023-10-14T01:00:39.630Z,79.67
2023-10-14T01:01:19.494Z,78.00
2023-10-14T01:02:00.553Z,81.33
2023-10-14T01:02:40.610Z,79.00
2023-10-14T01:03:19.401Z,76.00
2023-10-14T01:03:58.640Z,70.67
2023-10-14T01:04:36.101Z,63.67
2023-10-14T01:05:47.009Z,53.00
2023-10-14T01:06:36.405Z,54.00
2023-10-14T01:07:17.913Z,55.00
2023-10-14T01:08:02.972Z,55.00
2023-10-14T01:08:47.354Z,52.67
2023-10-14T01:09:32.896Z,44.33
2023-10-14T01:10:25.497Z,41.67
2023-10-14T01:11:04.897Z,34.67
2023-10-14T01:11:41.227Z,32.00
2023-10-14T01:12:23.082Z,38.00
2023-10-14T01:13:07.938Z,41.00
2023-10-14T01:14:20.422Z,48.00
2023-10-14T01:14:59.832Z,59.00
2023-10-14T01:16:11.675Z,59.00
2023-10-14T01:20:59.613Z,55.67
2023-10-14T01:22:15.641Z,49.33
2023-10-14T01:23:16.825Z,41.67
2023-10-14T01:24:02.887Z,20.67
2023-10-14T01:25:33.870Z,11.67
2023-10-14T01:27:47.705Z,8.00
2023-10-14T01:28:31.979Z,6.67
2023-10-14T01:29:13.329Z,6.00
2023-10-14T01:29:59.773Z,5.00
2023-10-14T01:32:12.339Z,3.33
2023-10-14T01:32:49.471Z,2.00
2023-10-14T01:34:07.004Z,3.33
2023-10-14T01:35:55.630Z,6.00
2023-10-14T01:36:46.798Z,7.00
2023-10-14T01:37:58.635Z,6.00
2023-10-14T01:38:47.378Z,6.67
2023-10-14T01:39:27.024Z,7.00
2023-10-14T01:41:00.426Z,8.00
2023-10-14T01:41:36.797Z,8.00
2023-10-14T01:42:15.157Z,8.00
2023-10-14T01:42:58.801Z,8.67
2023-10-14T01:43:48.617Z,14.00
2023-10-14T01:44:24.090Z,24.00
2023-10-14T01:45:57.810Z,26.00
2023-10-14T01:47:09.255Z,25.00
2023-10-14T01:48:27.449Z,24.00
2023-10-14T01:49:38.086Z,24.00
2023-10-14T01:50:17.074Z,24.00
2023-10-14T01:50:57.414Z,24.00
2023-10-14T01:51:37.699Z,24.33
2023-10-14T01:52:21.196Z,26.00
2023-10-14T01:53:10.087Z,29.67
2023-10-14T01:53:44.750Z,31.67
2023-10-14T01:54:29.360Z,32.00
2023-10-14T01:55:47.594Z,32.00
2023-10-14T01:56:30.981Z,36.00
2023-10-14T01:57:11.294Z,49.33
2023-10-14T01:57:48.089Z,70.67
2023-10-14T01:58:31.396Z,81.33
2023-10-14T01:59:09.737Z,86.33
2023-10-14T01:59:51.899Z,90.00
2023-10-14T02:00:29.428Z,93.67
2023-10-14T02:01:12.019Z,93.00
2023-10-14T02:02:22.379Z,98.00
2023-10-14T02:03:08.243Z,103.00
2023-10-14T02:03:49.336Z,106.67
2023-10-14T02:04:23.956Z,108.33
2023-10-14T02:04:59.091Z,108.67
2023-10-14T02:05:43.300Z,109.67
2023-10-14T02:06:21.829Z,109.00
2023-10-14T02:07:22.871Z,110.33
2023-10-14T02:08:02.045Z,114.00
2023-10-14T02:08:40.007Z,113.67
2023-10-14T02:09:18.526Z,111.00
2023-10-14T02:10:01.751Z,112.67
2023-10-14T02:10:37.229Z,111.00
2023-10-14T02:11:22.540Z,111.00
2023-10-14T02:11:58.989Z,110.33
2023-10-14T02:12:37.180Z,109.33
2023-10-14T02:13:12.915Z,108.33
2023-10-14T02:13:52.383Z,108.00
2023-10-14T02:14:29.203Z,107.00
2023-10-14T02:15:03.396Z,106.00
2023-10-14T02:16:26.936Z,105.00
2023-10-14T02:17:02.384Z,104.33
2023-10-14T02:17:37.087Z,104.00
2023-10-14T02:18:12.916Z,102.67
2023-10-14T02:18:51.287Z,98.00
2023-10-14T02:19:28.596Z,89.33
2023-10-14T02:20:21.655Z,85.00
2023-10-14T02:20:58.523Z,85.67
2023-10-14T02:21:34.073Z,86.00
2023-10-14T02:22:13.964Z,86.00
2023-10-14T02:22:51.392Z,87.00
2023-10-14T02:23:30.680Z,87.67
2023-10-14T02:24:11.565Z,88.00
2023-10-14T02:24:54.851Z,88.00
2023-10-14T02:26:23.220Z,85.00
2023-10-14T02:27:02.718Z,85.00
2023-10-14T02:27:46.084Z,85.00
2023-10-14T02:28:42.949Z,85.00
2023-10-14T02:29:20.311Z,71.00
2023-10-14T02:30:41.403Z,46.67
2023-10-14T02:31:53.156Z,36.00
2023-10-14T02:32:31.926Z,36.00
2023-10-14T02:33:12.785Z,31.33
2023-10-14T02:33:55.820Z,28.00
2023-10-14T02:35:00.059Z,28.33
2023-10-14T02:36:15.959Z,18.00
2023-10-14T02:36:54.384Z,17.33
2023-10-14T02:37:31.890Z,16.33
2023-10-14T02:38:06.420Z,13.67
2023-10-14T02:38:45.933Z,12.67
2023-10-14T02:39:32.914Z,10.67
2023-10-14T02:40:31.529Z,10.00
2023-10-14T02:41:11.133Z,8.33
2023-10-14T02:42:10.731Z,6.33
2023-10-14T02:42:46.871Z,5.33
2023-10-14T02:44:46.354Z,3.00
2023-10-14T02:46:02.618Z,4.00
2023-10-14T02:46:46.856Z,4.00
2023-10-14T02:48:13.959Z,4.67
2023-10-14T02:48:55.854Z,5.00
2023-10-14T02:49:40.950Z,5.00
2023-10-14T02:50:29.853Z,4.00
2023-10-14T02:51:07.830Z,3.33
2023-10-14T02:51:48.181Z,3.00
2023-10-14T02:53:09.752Z,3.00
2023-10-14T02:53:54.928Z,3.00
2023-10-14T02:54:35.504Z,3.00
2023-10-14T02:55:27.937Z,2.67
2023-10-14T02:56:06.809Z,2.00
2023-10-14T02:57:51.017Z,2.00
2023-10-14T02:59:06.156Z,2.00
2023-10-14T02:59:45.358Z,2.00
2023-10-14T03:00:32.462Z,2.00
2023-10-14T03:01:20.850Z,2.00
2023-10-14T03:03:20.496Z,2.00
2023-10-14T03:04:12.376Z,2.00
2023-10-14T03:04:53.954Z,2.00
2023-10-14T03:06:55.229Z,2.00
2023-10-14T03:07:41.511Z,2.00
2023-10-14T03:08:29.774Z,2.00
2023-10-14T03:09:11.637Z,2.00
2023-10-14T03:09:47.002Z,2.00
2023-10-14T03:10:28.724Z,2.00
2023-10-14T03:11:20.619Z,2.00
2023-10-14T03:12:00.924Z,2.00
2023-10-14T03:14:48.318Z,2.00
2023-10-14T03:15:23.660Z,2.00
2023-10-14T03:16:32.914Z,2.67
2023-10-14T03:17:15.798Z,3.00
2023-10-14T03:18:17.265Z,3.00
2023-10-14T03:18:52.426Z,3.00
2023-10-14T03:19:33.031Z,3.00
2023-10-14T03:20:29.684Z,3.00
2023-10-14T03:21:31.826Z,3.00
2023-10-14T03:22:18.941Z,3.00
2023-10-14T03:23:01.916Z,3.00
2023-10-14T03:23:37.785Z,3.00
2023-10-14T03:24:22.906Z,3.00
2023-10-14T03:25:09.657Z,3.00
2023-10-14T03:25:47.516Z,3.00
2023-10-14T03:26:22.303Z,3.00
2023-10-14T03:27:19.077Z,3.00
2023-10-14T03:29:07.706Z,3.00
2023-10-14T03:29:48.042Z,3.00
2023-10-14T03:31:10.301Z,3.00
2023-10-14T03:31:46.574Z,3.00
2023-10-14T03:32:35.141Z,3.00
2023-10-14T03:33:13.369Z,3.00
2023-10-14T03:33:50.333Z,3.00
2023-10-14T03:34:32.394Z,3.00
2023-10-14T03:35:14.735Z,4.00
2023-10-14T03:36:06.350Z,4.00
2023-10-14T03:36:44.084Z,4.00
2023-10-14T03:37:28.412Z,4.00
2023-10-14T03:38:17.965Z,4.00
2023-10-14T03:39:04.519Z,4.00
2023-10-14T03:39:50.850Z,4.00
2023-10-14T03:40:43.712Z,4.00
2023-10-14T03:41:20.950Z,4.00
2023-10-14T03:41:56.935Z,4.00
2023-10-14T03:42:44.360Z,4.00
2023-10-14T03:43:22.601Z,4.00
2023-10-14T03:44:01.290Z,4.33
2023-10-14T03:45:31.121Z,16.00
2023-10-14T03:46:45.689Z,18.00
2023-10-14T03:47:21.464Z,17.00
2023-10-14T03:48:01.797Z,16.00
2023-10-14T03:48:40.327Z,15.67
2023-10-14T03:49:27.498Z,15.00
2023-10-14T03:50:39.786Z,14.00
2023-10-14T03:52:06.191Z,12.67
2023-10-14T03:52:46.505Z,11.33
2023-10-14T03:53:21.936Z,10.33
2023-10-14T03:54:48.836Z,9.00
2023-10-14T03:55:59.976Z,8.00
2023-10-14T03:56:41.078Z,8.00
2023-10-14T03:57:34.735Z,7.67
2023-10-14T03:58:15.414Z,7.00
2023-10-14T03:58:55.015Z,7.00
2023-10-14T03:59:34.895Z,6.67
2023-10-14T04:00:23.131Z,6.00
2023-10-14T04:01:13.926Z,7.00
2023-10-14T04:01:56.350Z,8.67
2023-10-14T04:03:17.698Z,10.00
2023-10-14T04:03:54.941Z,10.00
2023-10-14T04:04:39.550Z,10.00
2023-10-14T04:05:16.479Z,14.67
2023-10-14T04:05:54.426Z,20.00
2023-10-14T04:06:35.814Z,24.33
2023-10-14T04:07:11.568Z,25.00
2023-10-14T04:07:46.437Z,27.00
2023-10-14T04:08:32.982Z,34.67
2023-10-14T04:09:11.979Z,42.67
2023-10-14T04:09:53.742Z,36.00
2023-10-14T04:10:36.235Z,34.00
2023-10-14T04:11:14.791Z,31.67
2023-10-14T04:11:54.073Z,30.33
2023-10-14T04:12:41.857Z,30.00
2023-10-14T04:13:16.079Z,32.33
2023-10-14T04:14:16.901Z,57.33
2023-10-14T04:14:56.267Z,91.00
2023-10-14T04:15:29.951Z,102.00
2023-10-14T04:16:08.910Z,98.00
2023-10-14T04:16:47.873Z,92.00
2023-10-14T04:17:24.583Z,87.67
2023-10-14T04:18:00.580Z,81.67
2023-10-14T04:25:45.150Z,78.33
2023-10-14T04:26:53.590Z,75.33
2023-10-14T04:27:29.844Z,93.67
2023-10-14T04:28:15.132Z,124.33
2023-10-14T04:28:57.988Z,135.33
2023-10-14T04:29:40.954Z,107.33
2023-10-14T04:30:57.782Z,121.67
2023-10-14T04:31:41.866Z,334.33
2023-10-14T04:32:18.848Z,114.33
2023-10-14T04:32:57.444Z,69.33
2023-10-14T04:33:36.906Z,55.00
2023-10-14T04:34:45.442Z,73.33
2023-10-14T04:35:26.053Z,62.67
2023-10-14T04:36:16.584Z,59.67
2023-10-14T04:36:58.174Z,47.67
2023-10-14T04:37:53.239Z,55.00
2023-10-14T04:38:39.873Z,65.00
2023-10-14T04:39:18.540Z,114.33
2023-10-14T04:40:13.324Z,127.33
2023-10-14T04:41:04.964Z,130.33
2023-10-14T04:42:42.645Z,162.33
2023-10-14T04:43:40.808Z,144.67
2023-10-14T04:44:23.076Z,62.67
2023-10-14T04:45:07.355Z,77.00
2023-10-14T04:46:00.464Z,80.67
2023-10-14T04:49:09.415Z,67.00
2023-10-14T04:49:53.564Z,51.33
2023-10-14T04:50:43.957Z,61.33
2023-10-14T04:51:47.477Z,80.33
2023-10-14T04:52:24.701Z,160.00
2023-10-14T04:53:50.040Z,211.33
2023-10-14T04:55:34.379Z,78.33
2023-10-14T04:56:13.220Z,79.33
2023-10-14T04:56:49.243Z,69.67
2023-10-14T04:57:28.203Z,298.33
2023-10-14T04:58:18.214Z,277.00
2023-10-14T04:58:54.718Z,86.33
2023-10-14T05:00:40.144Z,52.67
2023-10-14T05:02:51.490Z,82.33
2023-10-14T05:04:32.817Z,69.67
2023-10-14T05:05:24.007Z,72.67
2023-10-14T05:06:15.744Z,84.67
2023-10-14T05:07:49.475Z,109.33
2023-10-14T05:08:46.504Z,118.00
2023-10-14T05:09:42.028Z,148.67
2023-10-14T05:10:17.709Z,437.33
2023-10-14T05:10:54.579Z,437.00
2023-10-14T05:13:34.562Z,32.00
2023-10-14T05:14:50.828Z,26.67
2023-10-14T05:15:31.514Z,28.00
2023-10-14T05:18:04.055Z,21.00
2023-10-14T05:20:19.942Z,11.00
2023-10-14T05:21:24.127Z,22.00
2023-10-14T05:22:06.019Z,135.33
2023-10-14T05:23:14.570Z,217.00
2023-10-14T05:23:55.479Z,159.33
2023-10-14T05:24:33.194Z,101.00
2023-10-14T05:25:55.350Z,81.67
2023-10-14T05:26:34.101Z,169.33
2023-10-14T05:28:10.171Z,359.00
2023-10-14T05:28:46.264Z,362.00
2023-10-14T05:29:31.628Z,356.00
2023-10-14T05:30:11.175Z,408.33
2023-10-14T05:30:50.989Z,444.00
2023-10-14T05:31:32.403Z,452.00
2023-10-14T05:32:12.886Z,492.33
2023-10-14T05:32:55.710Z,490.33
2023-10-14T05:33:33.070Z,471.67
2023-10-14T05:34:10.781Z,425.67
2023-10-14T05:34:46.945Z,397.67
2023-10-14T05:35:25.360Z,382.33
2023-10-14T05:36:02.622Z,344.33
2023-10-14T05:36:36.564Z,283.00
2023-10-14T05:37:14.927Z,242.00
2023-10-14T05:37:57.183Z,265.33
2023-10-14T05:38:35.102Z,221.33
2023-10-14T05:39:12.103Z,182.67
2023-10-14T05:39:47.535Z,223.33
2023-10-14T05:40:27.477Z,268.00
2023-10-14T05:42:01.065Z,259.00
2023-10-14T05:42:36.469Z,249.67
2023-10-14T05:43:12.344Z,236.33
2023-10-14T05:43:50.841Z,234.67
2023-10-14T05:44:32.201Z,215.67
2023-10-14T05:45:06.118Z,191.00
2023-10-14T05:45:41.243Z,169.33
2023-10-14T05:46:17.756Z,165.00
2023-10-14T05:47:30.865Z,155.67
2023-10-14T05:48:09.857Z,279.00
2023-10-14T05:48:46.160Z,328.67
2023-10-14T05:51:56.408Z,190.33
2023-10-14T05:52:31.619Z,232.00
2023-10-14T05:53:09.997Z,247.33
2023-10-14T05:54:45.346Z,222.00
2023-10-14T05:56:55.317Z,388.33
2023-10-14T05:57:31.259Z,400.33
2023-10-14T05:58:08.331Z,403.33
2023-10-14T05:58:50.254Z,385.00
2023-10-14T06:00:22.725Z,337.67
2023-10-14T06:00:55.695Z,371.33
2023-10-14T06:01:31.391Z,363.00
2023-10-14T06:02:18.997Z,325.67
2023-10-14T06:02:58.815Z,350.00
2023-10-14T06:04:29.095Z,339.33
2023-10-14T06:05:37.596Z,327.67
2023-10-14T06:06:17.348Z,327.00
2023-10-14T06:06:51.657Z,326.33
2023-10-14T06:07:25.379Z,325.33
2023-10-14T06:08:07.389Z,334.67
2023-10-14T06:08:44.715Z,369.00
2023-10-14T06:09:20.582Z,381.67
2023-10-14T06:10:33.042Z,370.33
2023-10-14T06:11:09.311Z,379.67
2023-10-14T06:11:48.448Z,383.00
2023-10-14T06:12:25.410Z,368.00
2023-10-14T06:13:01.101Z,366.00
2023-10-14T06:13:37.016Z,367.00
2023-10-14T06:14:23.596Z,364.00
2023-10-14T06:15:01.366Z,360.67
2023-10-14T06:15:47.960Z,361.67
2023-10-14T06:16:21.413Z,372.33
2023-10-14T06:16:59.651Z,368.67
2023-10-14T06:17:45.525Z,373.33
2023-10-14T06:18:21.366Z,380.33
2023-10-14T06:18:58.713Z,383.00
2023-10-14T06:19:37.298Z,377.67
2023-10-14T06:20:15.823Z,371.00
2023-10-14T06:20:50.816Z,345.33
2023-10-14T06:22:42.761Z,336.00
2023-10-14T06:23:18.460Z,339.67
2023-10-14T06:24:31.310Z,343.33
2023-10-14T06:25:30.924Z,334.67
2023-10-14T06:26:08.051Z,310.67
2023-10-14T06:26:43.380Z,310.33
2023-10-14T06:27:23.792Z,309.00
2023-10-14T06:28:03.128Z,296.00
2023-10-14T06:28:52.830Z,290.33
2023-10-14T06:29:28.486Z,287.67
2023-10-14T06:30:20.626Z,273.33
2023-10-14T06:31:16.410Z,321.33
2023-10-14T06:31:54.932Z,360.33
2023-10-14T06:32:38.470Z,387.33
2023-10-14T06:33:13.944Z,379.00
2023-10-14T06:34:17.315Z,375.67
2023-10-14T06:35:00.197Z,368.33
2023-10-14T06:35:36.905Z,372.67
2023-10-14T06:36:18.284Z,383.33
2023-10-14T06:36:57.616Z,381.00
2023-10-14T06:37:41.764Z,367.33
2023-10-14T06:38:35.264Z,364.33
2023-10-14T06:39:44.412Z,338.33
2023-10-14T06:40:38.942Z,338.67
2023-10-14T06:41:18.703Z,317.67
2023-10-14T06:41:52.386Z,304.33
2023-10-14T06:42:29.013Z,287.00
2023-10-14T06:43:35.407Z,278.67
2023-10-14T06:44:55.305Z,248.33
2023-10-14T06:45:40.103Z,222.00
2023-10-14T06:46:49.129Z,227.33
2023-10-14T06:47:23.933Z,228.67
2023-10-14T06:48:41.990Z,265.67
2023-10-14T06:49:19.548Z,267.33
2023-10-14T06:49:55.949Z,275.00
2023-10-14T06:50:36.589Z,263.33
2023-10-14T06:51:20.988Z,267.00
2023-10-14T06:51:56.733Z,272.67
2023-10-14T06:52:36.792Z,276.00
2023-10-14T06:53:19.849Z,276.33
2023-10-14T06:53:58.047Z,289.33
2023-10-14T06:55:19.141Z,292.00
2023-10-14T06:56:04.146Z,312.67
2023-10-14T06:57:13.010Z,299.33
2023-10-14T06:58:02.453Z,320.33
2023-10-14T06:58:43.237Z,359.67
2023-10-14T06:59:55.515Z,243.00
2023-10-14T07:01:00.818Z,273.00
2023-10-14T07:01:40.041Z,298.00
2023-10-14T07:02:35.110Z,250.67
2023-10-14T07:03:21.555Z,204.00
2023-10-14T07:04:15.951Z,168.33
2023-10-14T07:04:54.718Z,131.33
2023-10-14T07:05:57.370Z,133.33
2023-10-14T07:07:12.002Z,108.67
2023-10-14T07:08:04.939Z,103.00
2023-10-14T07:08:41.583Z,137.00
2023-10-14T07:09:25.217Z,167.00
2023-10-14T07:10:37.192Z,133.33
2023-10-14T07:11:24.989Z,136.67
2023-10-14T07:13:33.838Z,146.33
2023-10-14T07:15:23.632Z,168.33
2023-10-14T07:16:07.616Z,143.33
2023-10-14T07:16:54.119Z,123.67
2023-10-14T07:17:52.555Z,122.00
2023-10-14T07:18:30.202Z,141.67
2023-10-14T07:19:08.089Z,129.33
2023-10-14T07:20:42.896Z,122.67
2023-10-14T07:21:51.952Z,142.33
2023-10-14T07:23:24.953Z,136.00
2023-10-14T07:24:06.828Z,123.33
2023-10-14T07:24:45.412Z,108.67
2023-10-14T07:25:32.917Z,107.67
2023-10-14T07:26:14.156Z,119.33
2023-10-14T07:26:59.221Z,128.00
2023-10-14T07:27:42.883Z,137.67
2023-10-14T07:28:43.387Z,148.00
2023-10-14T07:30:18.495Z,144.00
2023-10-14T07:31:42.046Z,115.67
2023-10-14T07:32:37.033Z,115.33
2023-10-14T07:33:52.793Z,103.00
2023-10-14T07:34:46.214Z,100.00
2023-10-14T07:35:42.281Z,83.33
2023-10-14T07:37:20.312Z,101.67
2023-10-14T07:38:08.576Z,129.00
2023-10-14T07:40:26.031Z,110.00
2023-10-14T07:42:36.578Z,267.33
2023-10-14T07:43:28.248Z,188.33
2023-10-14T07:44:15.567Z,174.00
2023-10-14T07:46:53.779Z,139.67
2023-10-14T07:47:39.632Z,146.00
2023-10-14T07:48:27.652Z,145.00
2023-10-14T07:49:09.981Z,144.67
2023-10-14T07:49:51.685Z,136.67
2023-10-14T07:50:44.310Z,177.67
2023-10-14T07:51:41.084Z,174.33
2023-10-14T07:53:48.816Z,154.67
2023-10-14T07:55:14.770Z,145.33
2023-10-14T07:56:16.798Z,140.00
2023-10-14T07:57:07.742Z,108.67
2023-10-14T07:59:15.721Z,91.33
2023-10-14T08:02:19.087Z,94.67
2023-10-14T08:03:23.290Z,84.00
2023-10-14T08:04:30.320Z,113.33
2023-10-14T08:06:39.811Z,125.00
2023-10-14T08:07:16.299Z,103.67
2023-10-14T08:07:52.297Z,100.67
2023-10-14T08:08:38.279Z,104.33
2023-10-14T08:10:29.745Z,146.67
2023-10-14T08:12:05.263Z,149.33
2023-10-14T08:14:34.132Z,154.00
2023-10-14T08:16:10.751Z,171.00
2023-10-14T08:17:43.202Z,158.67
2023-10-14T08:19:35.069Z,85.67
2023-10-14T08:20:20.803Z,90.00
2023-10-14T08:21:02.121Z,107.33
2023-10-14T08:21:39.204Z,114.33
2023-10-14T08:22:20.799Z,135.67
2023-10-14T08:23:15.948Z,150.33
2023-10-14T08:23:51.483Z,142.67
2023-10-14T08:24:27.523Z,137.67
2023-10-14T08:25:59.376Z,132.67
2023-10-14T08:26:35.312Z,126.00
2023-10-14T08:27:13.572Z,120.33
2023-10-14T08:27:49.113Z,109.00
2023-10-14T08:28:31.059Z,106.33
2023-10-14T08:29:06.691Z,109.67
2023-10-14T08:29:43.226Z,112.00
2023-10-14T08:31:16.961Z,118.33
2023-10-14T08:32:26.421Z,126.00
2023-10-14T08:33:20.206Z,127.00
2023-10-14T08:34:12.686Z,189.67
2023-10-14T08:35:07.343Z,183.33
2023-10-14T08:36:44.856Z,152.00
2023-10-14T08:37:24.330Z,157.00
2023-10-14T08:38:26.865Z,154.00
2023-10-14T08:39:21.742Z,152.00
2023-10-14T08:41:56.879Z,190.00
2023-10-14T08:43:14.161Z,165.00
2023-10-14T08:44:05.163Z,149.00
2023-10-14T08:45:25.338Z,188.67
2023-10-14T08:46:45.574Z,173.00
2023-10-14T08:47:19.107Z,143.00
2023-10-14T08:48:16.474Z,120.33
2023-10-14T08:48:54.485Z,90.33
2023-10-14T08:49:32.294Z,83.67
2023-10-14T08:50:10.857Z,79.33
2023-10-14T08:51:01.648Z,80.33
2023-10-14T08:53:15.511Z,102.00
2023-10-14T08:57:04.890Z,115.67
2023-10-14T08:58:07.326Z,131.33
2023-10-14T08:59:03.588Z,136.67
2023-10-14T09:00:52.521Z,134.00
2023-10-14T09:01:59.918Z,170.00
2023-10-14T09:05:42.433Z,153.33
2023-10-14T09:08:16.796Z,216.67
2023-10-14T09:10:04.428Z,172.67
2023-10-14T09:10:46.119Z,205.67
2023-10-14T09:11:47.233Z,185.33
2023-10-14T09:12:25.098Z,153.00
2023-10-14T09:14:35.766Z,146.67
2023-10-14T09:16:11.718Z,124.00
2023-10-14T09:18:30.804Z,104.67
2023-10-14T09:19:51.450Z,111.67
2023-10-14T09:20:28.184Z,118.67
2023-10-14T09:21:12.378Z,122.00
2023-10-14T09:23:49.107Z,120.67
2023-10-14T09:24:38.475Z,132.00
2023-10-14T09:25:51.992Z,132.00
2023-10-14T09:26:50.958Z,106.67
2023-10-14T09:28:03.794Z,99.67
2023-10-14T09:28:48.589Z,96.67
2023-10-14T09:30:37.009Z,85.67
2023-10-14T09:31:14.793Z,86.33
2023-10-14T09:31:53.039Z,69.67
2023-10-14T09:32:45.947Z,55.67
2023-10-14T09:33:54.414Z,92.67
2023-10-14T09:34:33.180Z,87.33
2023-10-14T09:35:05.928Z,72.67
2023-10-14T09:35:39.362Z,61.67
2023-10-14T09:37:20.148Z,55.67
2023-10-14T09:38:05.156Z,36.33
2023-10-14T09:39:34.888Z,25.67
2023-10-14T09:40:26.995Z,43.00
2023-10-14T09:41:10.754Z,42.33
2023-10-14T09:42:48.147Z,44.33
2023-10-14T09:44:46.874Z,41.67
2023-10-14T09:45:24.245Z,35.00
2023-10-14T09:46:33.263Z,213.00
2023-10-14T09:47:32.111Z,182.00
2023-10-14T09:48:12.945Z,94.33
2023-10-14T09:48:53.292Z,89.67
2023-10-14T09:49:29.960Z,84.00
2023-10-14T09:50:14.056Z,77.67
2023-10-14T09:50:49.646Z,74.00
2023-10-14T09:51:23.850Z,65.00
2023-10-14T09:52:04.469Z,58.00
2023-10-14T09:52:42.520Z,55.00
2023-10-14T09:53:16.536Z,53.67
2023-10-14T09:53:51.415Z,47.00
2023-10-14T09:54:30.919Z,37.00
2023-10-14T09:55:08.288Z,33.00
2023-10-14T09:55:42.507Z,29.33
2023-10-14T09:56:17.233Z,25.00
2023-10-14T09:58:05.063Z,17.67
2023-10-14T09:58:42.521Z,13.33
2023-10-14T09:59:48.775Z,15.00
2023-10-14T10:01:00.922Z,16.67
2023-10-14T10:01:52.220Z,15.00
2023-10-14T10:03:23.851Z,71.67
2023-10-14T10:04:46.725Z,53.00
2023-10-14T10:05:50.405Z,37.00
2023-10-14T10:07:00.667Z,31.33
2023-10-14T10:07:48.000Z,36.67
2023-10-14T10:09:18.576Z,47.00
2023-10-14T10:10:30.065Z,134.33
2023-10-14T10:12:06.632Z,135.33
2023-10-14T10:12:43.225Z,136.00
2023-10-14T10:13:18.415Z,143.00
2023-10-14T10:14:18.347Z,149.67
2023-10-14T10:15:03.236Z,175.00
2023-10-14T10:15:36.924Z,174.67
2023-10-14T10:17:01.587Z,138.00
2023-10-14T10:17:40.686Z,130.00
2023-10-14T10:18:14.783Z,120.33
2023-10-14T10:19:03.291Z,96.33
2023-10-14T10:20:56.387Z,47.00
2023-10-14T10:21:31.218Z,52.00
2023-10-14T10:22:29.907Z,43.67
2023-10-14T10:24:25.742Z,22.33
2023-10-14T10:27:06.938Z,39.00
2023-10-14T10:27:46.729Z,41.67
2023-10-14T10:28:53.453Z,31.67
2023-10-14T10:29:26.555Z,26.67
2023-10-14T10:30:10.522Z,22.00
2023-10-14T10:30:43.234Z,21.67
2023-10-14T10:31:20.059Z,21.00
2023-10-14T10:32:11.205Z,18.67
2023-10-14T10:34:13.137Z,17.67
2023-10-14T10:35:59.748Z,18.67
2023-10-14T10:36:36.323Z,14.67
2023-10-14T10:37:10.559Z,13.00
2023-10-14T10:38:17.232Z,12.00
2023-10-14T10:38:56.767Z,13.00
2023-10-14T10:39:29.128Z,13.00
2023-10-14T10:41:34.084Z,15.00
2023-10-14T10:42:17.326Z,15.00
2023-10-14T10:43:38.277Z,15.00
2023-10-14T10:44:49.717Z,17.00
2023-10-14T10:45:39.856Z,17.67
2023-10-14T10:46:49.622Z,18.00
2023-10-14T10:47:31.265Z,17.00
2023-10-14T10:48:23.663Z,16.00
2023-10-14T10:50:16.336Z,15.00
2023-10-14T10:52:18.873Z,13.00
2023-10-14T10:53:20.166Z,13.00
2023-10-14T10:53:58.629Z,13.00
2023-10-14T10:55:09.081Z,13.00
2023-10-14T10:55:50.646Z,15.33
2023-10-14T10:56:23.114Z,19.00
2023-10-14T10:57:08.082Z,20.00
2023-10-14T10:57:41.050Z,20.00
2023-10-14T10:58:31.120Z,19.33
2023-10-14T10:59:05.899Z,19.00
2023-10-14T10:59:59.446Z,19.00
2023-10-14T11:00:54.393Z,18.00
2023-10-14T11:01:34.320Z,18.00
2023-10-14T11:02:11.911Z,18.00
2023-10-14T11:03:54.220Z,18.00
2023-10-14T11:04:31.554Z,18.00
2023-10-14T11:05:06.610Z,18.00
2023-10-14T11:06:36.507Z,20.00
2023-10-14T11:07:17.836Z,20.67
2023-10-14T11:08:29.176Z,22.33
2023-10-14T11:09:33.280Z,24.67
2023-10-14T11:10:05.657Z,25.00
2023-10-14T11:11:25.068Z,24.00
2023-10-14T11:12:15.685Z,23.00
2023-10-14T11:12:48.185Z,23.00
2023-10-14T11:13:25.396Z,25.00
2023-10-14T11:14:11.776Z,27.67
2023-10-14T11:14:55.572Z,27.33
2023-10-14T11:15:44.852Z,27.00
2023-10-14T11:16:17.200Z,26.00
2023-10-14T11:17:26.552Z,25.00
2023-10-14T11:18:05.032Z,35.67
2023-10-14T11:18:55.609Z,36.33
2023-10-14T11:19:36.755Z,34.00
2023-10-14T11:20:09.691Z,32.33
2023-10-14T11:22:19.182Z,29.00
2023-10-14T11:22:58.269Z,28.33
2023-10-14T11:23:42.314Z,27.33
2023-10-14T11:24:14.463Z,26.00
2023-10-14T11:25:28.328Z,25.67
2023-10-14T11:26:39.193Z,24.33
2023-10-14T11:27:18.196Z,210.33
2023-10-14T11:27:57.682Z,225.33
2023-10-14T11:28:48.158Z,163.00
2023-10-14T11:29:29.931Z,111.67
2023-10-14T11:30:07.581Z,83.33
2023-10-14T11:30:49.546Z,78.67
2023-10-14T11:31:24.679Z,68.00
2023-10-14T11:32:01.086Z,59.00
2023-10-14T11:32:33.121Z,43.00
2023-10-14T11:33:29.653Z,33.33
2023-10-14T11:34:20.456Z,27.67
2023-10-14T11:35:17.507Z,28.00
2023-10-14T11:35:55.801Z,36.00
2023-10-14T11:36:32.480Z,37.00
2023-10-14T11:38:20.636Z,36.33
2023-10-14T11:39:05.840Z,73.67
2023-10-14T11:39:50.248Z,107.67
2023-10-14T11:40:33.298Z,77.33
2023-10-14T11:41:17.089Z,71.00
2023-10-14T11:42:31.915Z,62.33
2023-10-14T11:43:15.083Z,51.67
2023-10-14T11:45:48.018Z,36.00
2023-10-14T11:47:21.751Z,30.67
2023-10-14T11:48:36.269Z,34.67
2023-10-14T11:49:32.519Z,36.67
2023-10-14T11:50:14.731Z,38.00
2023-10-14T11:51:06.875Z,37.67
2023-10-14T11:52:17.461Z,33.00
2023-10-14T11:53:39.818Z,31.00
2023-10-14T11:54:13.352Z,26.33